Terminal Aerodrome Forecast
Issued by NWS Milwaukee/Sullivan, WI

Current Version | Previous Version | Text Only | Print | Product List | Glossary On
Versions: 1 2 3 4 5 6 7 8 9 10 11 12 13 14 15 16 17 18 19 20 21 22 23 24 25 26 27 28 29 30 31 32 33 34 35 36 37 38 39 40 41 42 43 44 45 46 47 48 49 50
000
FTUS43 KMKX 241511 AAC
TAFMSN
TAF AMD
KMSN 241511Z 2415/2512 28011G19KT P6SM -DZ OVC009
     FM241700 28012G21KT 1SM -SN OVC003
      TEMPO 2417/2419 1/2SM SN
     FM242100 27014G23KT 3SM -SN BLSN OVC015
     FM250600 29011KT 6SM -SN BLSN OVC020
     FM250900 30009KT 6SM BLSN OVC025
     FM251000 30009KT 6SM BLSN OVC035=

USA.gov is the U.S. government's official web portal to all federal, state and local government web resources and services.